createdAt,value
2022-09-12T00:00:11.094Z,989.80
2022-09-12T00:01:11.161Z,989.79
2022-09-12T00:02:11.111Z,989.78
2022-09-12T00:03:11.068Z,989.77
2022-09-12T00:04:11.095Z,989.80
2022-09-12T00:05:11.048Z,989.81
2022-09-12T00:06:11.036Z,989.77
2022-09-12T00:07:11.025Z,989.77
2022-09-12T00:08:11.011Z,989.76
2022-09-12T00:09:11.020Z,989.75
2022-09-12T00:10:10.992Z,989.68
2022-09-12T00:11:10.984Z,989.76
2022-09-12T00:12:10.970Z,989.71
2022-09-12T00:13:10.961Z,989.77
2022-09-12T00:14:10.961Z,989.74
2022-09-12T00:15:10.942Z,989.75
2022-09-12T00:16:10.947Z,989.74
2022-09-12T00:17:10.919Z,989.73
2022-09-12T00:18:10.909Z,989.75
2022-09-12T00:19:10.914Z,989.72
2022-09-12T00:20:10.911Z,989.74
2022-09-12T00:21:10.878Z,989.74
2022-09-12T00:22:10.878Z,989.70
2022-09-12T00:23:10.871Z,989.68
2022-09-12T00:24:10.849Z,989.65
2022-09-12T00:25:10.835Z,989.68
2022-09-12T00:26:10.826Z,989.68
2022-09-12T00:27:10.816Z,989.70
2022-09-12T00:28:10.803Z,989.69
2022-09-12T00:29:10.810Z,989.67
2022-09-12T00:30:10.782Z,989.66
2022-09-12T00:31:10.771Z,989.64
2022-09-12T00:32:10.765Z,989.63
2022-09-12T00:33:10.752Z,989.63
2022-09-12T00:34:10.769Z,989.62
2022-09-12T00:35:10.735Z,989.61
2022-09-12T00:36:10.740Z,989.61
2022-09-12T00:37:10.706Z,989.64
2022-09-12T00:38:10.700Z,989.67
2022-09-12T00:39:10.700Z,989.62
2022-09-12T00:40:10.717Z,989.62
2022-09-12T00:41:10.670Z,989.64
2022-09-12T00:42:10.656Z,989.61
2022-09-12T00:43:10.660Z,989.63
2022-09-12T00:44:10.636Z,989.59
2022-09-12T00:45:10.628Z,989.58
2022-09-12T00:46:10.612Z,989.60
2022-09-12T00:47:10.603Z,989.56
2022-09-12T00:48:10.608Z,989.58
2022-09-12T00:49:10.581Z,989.53
2022-09-12T00:50:10.570Z,989.54
2022-09-12T00:51:10.563Z,989.54
2022-09-12T00:52:10.576Z,989.52
2022-09-12T00:53:10.552Z,989.52
2022-09-12T00:54:10.532Z,989.49
2022-09-12T00:55:10.520Z,989.46
2022-09-12T00:56:10.508Z,989.43
2022-09-12T00:57:10.500Z,989.42
2022-09-12T00:58:10.500Z,989.41
2022-09-12T00:59:10.481Z,989.37
2022-09-12T01:00:10.467Z,989.36
2022-09-12T01:01:10.547Z,989.33
2022-09-12T01:02:10.618Z,989.33
2022-09-12T01:03:10.452Z,989.31
2022-09-12T01:04:10.425Z,989.32
2022-09-12T01:05:10.414Z,989.30
2022-09-12T01:06:10.415Z,989.34
2022-09-12T01:07:10.392Z,989.31
2022-09-12T01:08:10.417Z,989.27
2022-09-12T01:09:10.373Z,989.31
2022-09-12T01:10:10.361Z,989.28
2022-09-12T01:11:10.351Z,989.29
2022-09-12T01:12:10.343Z,989.27
2022-09-12T01:13:10.348Z,989.26
2022-09-12T01:14:10.321Z,989.25
2022-09-12T01:15:10.308Z,989.29
2022-09-12T01:16:10.383Z,989.29
2022-09-12T01:17:10.291Z,989.28
2022-09-12T01:18:10.299Z,989.25
2022-09-12T01:19:10.268Z,989.28
2022-09-12T01:20:10.257Z,989.24
2022-09-12T01:21:10.248Z,989.23
2022-09-12T01:22:10.235Z,989.23
2022-09-12T01:23:10.238Z,989.22
2022-09-12T01:24:10.239Z,989.25
2022-09-12T01:25:10.205Z,989.19
2022-09-12T01:26:10.196Z,989.22
2022-09-12T01:27:10.185Z,989.20
2022-09-12T01:28:10.188Z,989.18
2022-09-12T01:29:10.166Z,989.18
2022-09-12T01:30:10.153Z,989.20
2022-09-12T01:31:10.140Z,989.23
2022-09-12T01:32:10.188Z,989.17
2022-09-12T01:33:10.138Z,989.20
2022-09-12T01:34:10.110Z,989.18
2022-09-12T01:35:10.106Z,989.17
2022-09-12T01:36:10.087Z,989.19
2022-09-12T01:37:10.078Z,989.21
2022-09-12T01:38:10.084Z,989.18
2022-09-12T01:39:10.059Z,989.22
2022-09-12T01:40:10.147Z,989.22
2022-09-12T01:41:10.032Z,989.20
2022-09-12T01:42:10.031Z,989.20
2022-09-12T01:43:10.024Z,989.16
2022-09-12T01:44:10.003Z,989.18
2022-09-12T01:45:09.993Z,989.16
2022-09-12T01:46:10.050Z,989.18
2022-09-12T01:47:09.979Z,989.18
2022-09-12T01:48:09.973Z,989.19
2022-09-12T01:49:09.954Z,989.21
2022-09-12T01:50:09.943Z,989.20
2022-09-12T01:51:09.932Z,989.25
2022-09-12T01:52:09.925Z,989.24
2022-09-12T01:53:09.926Z,989.22
2022-09-12T01:54:09.899Z,989.15
2022-09-12T01:55:10.023Z,989.16
2022-09-12T01:56:09.899Z,989.17
2022-09-12T01:57:09.866Z,989.13
2022-09-12T01:58:09.876Z,989.15
2022-09-12T01:59:09.850Z,989.11
2022-09-12T02:00:09.838Z,989.18
2022-09-12T02:01:09.874Z,989.11
2022-09-12T02:02:09.905Z,989.07
2022-09-12T02:03:09.819Z,989.05
2022-09-12T02:04:09.793Z,989.05
2022-09-12T02:05:09.785Z,989.06
2022-09-12T02:06:09.777Z,989.05
2022-09-12T02:07:09.762Z,989.04
2022-09-12T02:08:09.755Z,988.99
2022-09-12T02:09:09.780Z,989.01
2022-09-12T02:10:09.734Z,989.03
2022-09-12T02:11:09.723Z,989.00
2022-09-12T02:12:09.738Z,988.97
2022-09-12T02:13:09.699Z,989.00
2022-09-12T02:14:09.705Z,988.96
2022-09-12T02:15:09.679Z,988.99
2022-09-12T02:16:09.691Z,988.96
2022-09-12T02:17:09.661Z,988.93
2022-09-12T02:18:09.650Z,988.91
2022-09-12T02:19:09.652Z,988.94
2022-09-12T02:20:17.574Z,988.95
2022-09-12T02:21:10.622Z,988.89
2022-09-12T02:22:09.607Z,988.88
2022-09-12T02:23:09.599Z,988.94
2022-09-12T02:24:09.603Z,988.94
2022-09-12T02:25:09.578Z,988.96
2022-09-12T02:26:09.566Z,988.95
2022-09-12T02:27:09.555Z,988.94
2022-09-12T02:28:09.585Z,988.94
2022-09-12T02:29:09.531Z,988.96
2022-09-12T02:30:09.525Z,988.94
2022-09-12T02:31:09.515Z,988.95
2022-09-12T02:32:09.507Z,988.99
2022-09-12T02:33:09.508Z,988.94
2022-09-12T02:34:09.523Z,988.94
2022-09-12T02:35:09.469Z,988.94
2022-09-12T02:36:09.462Z,988.93
2022-09-12T02:37:09.448Z,988.92
2022-09-12T02:38:09.483Z,988.93
2022-09-12T02:39:09.428Z,988.93
2022-09-12T02:40:09.435Z,988.98
2022-09-12T02:41:09.409Z,988.97
2022-09-12T02:42:09.399Z,988.95
2022-09-12T02:43:09.388Z,988.99
2022-09-12T02:44:09.416Z,988.97
2022-09-12T02:45:09.367Z,988.96
2022-09-12T02:46:09.379Z,988.95
2022-09-12T02:47:09.351Z,988.93
2022-09-12T02:48:09.337Z,988.95
2022-09-12T02:49:09.605Z,988.92
2022-09-12T02:50:10.127Z,988.89
2022-09-12T02:51:09.306Z,988.90
2022-09-12T02:52:09.298Z,988.86
2022-09-12T02:53:09.295Z,988.88
2022-09-12T02:54:09.272Z,988.86
2022-09-12T02:55:09.263Z,988.87
2022-09-12T02:56:09.253Z,988.87
2022-09-12T02:57:09.242Z,988.87
2022-09-12T02:58:09.245Z,988.85
2022-09-12T02:59:09.221Z,988.85
2022-09-12T03:00:09.231Z,988.85
2022-09-12T03:01:09.447Z,988.87
2022-09-12T03:02:09.225Z,988.85
2022-09-12T03:03:09.199Z,988.86
2022-09-12T03:04:09.189Z,988.86
2022-09-12T03:05:09.155Z,988.83
2022-09-12T03:06:09.147Z,988.87
2022-09-12T03:07:09.134Z,988.85
2022-09-12T03:08:09.137Z,988.86
2022-09-12T03:09:09.129Z,988.83
2022-09-12T03:10:09.112Z,988.84
2022-09-12T03:11:09.105Z,988.83
2022-09-12T03:12:09.098Z,988.84
2022-09-12T03:13:09.077Z,988.82
2022-09-12T03:14:09.103Z,988.86
2022-09-12T03:15:09.059Z,988.89
2022-09-12T03:16:09.138Z,988.86
2022-09-12T03:17:09.033Z,988.86
2022-09-12T03:18:09.022Z,988.86
2022-09-12T03:19:09.025Z,988.88
2022-09-12T03:20:09.001Z,988.86
2022-09-12T03:21:08.988Z,988.88
2022-09-12T03:22:08.984Z,988.85
2022-09-12T03:23:08.991Z,988.89
2022-09-12T03:24:08.974Z,988.90
2022-09-12T03:25:08.949Z,988.91
2022-09-12T03:26:08.940Z,988.88
2022-09-12T03:27:08.930Z,988.87
2022-09-12T03:28:08.935Z,988.85
2022-09-12T03:29:08.923Z,988.88
2022-09-12T03:30:08.904Z,988.89
2022-09-12T03:31:08.887Z,988.85
2022-09-12T03:32:08.900Z,988.88
2022-09-12T03:33:08.869Z,988.84
2022-09-12T03:34:08.871Z,988.86
2022-09-12T03:35:08.842Z,988.88
2022-09-12T03:36:08.837Z,988.87
2022-09-12T03:37:08.835Z,988.86
2022-09-12T03:38:08.813Z,988.86
2022-09-12T03:39:08.818Z,988.82
2022-09-12T03:40:08.902Z,988.87
2022-09-12T03:41:08.784Z,988.85
2022-09-12T03:42:08.774Z,988.85
2022-09-12T03:43:08.761Z,988.84
2022-09-12T03:44:08.770Z,988.88
2022-09-12T03:45:08.743Z,988.92
2022-09-12T03:46:08.838Z,988.90
2022-09-12T03:47:11.302Z,988.88
2022-09-12T03:48:08.733Z,988.91
2022-09-12T03:49:09.655Z,988.94
2022-09-12T03:50:08.693Z,988.94
2022-09-12T03:51:08.682Z,988.93
2022-09-12T03:52:08.674Z,988.93
2022-09-12T03:53:08.673Z,988.91
2022-09-12T03:54:08.667Z,988.88
2022-09-12T03:55:08.671Z,988.88
2022-09-12T03:56:08.629Z,988.87
2022-09-12T03:57:08.618Z,988.83
2022-09-12T03:58:08.610Z,988.86
2022-09-12T03:59:08.614Z,988.85
2022-09-12T04:00:08.592Z,988.83
2022-09-12T04:01:08.609Z,988.88
2022-09-12T04:02:08.627Z,988.84
2022-09-12T04:03:08.557Z,988.86
2022-09-12T04:04:08.586Z,988.88
2022-09-12T04:05:08.539Z,988.90
2022-09-12T04:06:08.546Z,988.90
2022-09-12T04:07:08.516Z,988.90
2022-09-12T04:08:08.511Z,988.88
2022-09-12T04:09:08.511Z,988.85
2022-09-12T04:10:09.633Z,988.86
2022-09-12T04:11:08.476Z,988.90
2022-09-12T04:12:08.468Z,988.88
2022-09-12T04:13:08.454Z,988.86
2022-09-12T04:14:08.479Z,988.88
2022-09-12T04:15:08.435Z,988.89
2022-09-12T04:16:08.515Z,988.90
2022-09-12T04:17:09.146Z,988.92
2022-09-12T04:18:08.405Z,988.88
2022-09-12T04:19:08.414Z,988.91
2022-09-12T04:20:08.407Z,988.91
2022-09-12T04:21:09.145Z,988.94
2022-09-12T04:22:08.366Z,988.90
2022-09-12T04:23:08.356Z,988.96
2022-09-12T04:24:09.112Z,988.90
2022-09-12T04:25:08.344Z,988.93
2022-09-12T04:26:08.324Z,988.91
2022-09-12T04:27:08.311Z,988.90
2022-09-12T04:28:08.304Z,988.89
2022-09-12T04:29:08.291Z,988.90
2022-09-12T04:30:08.297Z,988.89
2022-09-12T04:31:08.271Z,988.92
2022-09-12T04:32:08.271Z,988.91
2022-09-12T04:33:08.357Z,988.90
2022-09-12T04:34:08.243Z,988.88
2022-09-12T04:35:08.242Z,988.87
2022-09-12T04:36:08.241Z,988.84
2022-09-12T04:37:08.209Z,988.85
2022-09-12T04:38:08.205Z,988.84
2022-09-12T04:39:08.189Z,988.81
2022-09-12T04:40:08.237Z,988.81
2022-09-12T04:41:08.174Z,988.81
2022-09-12T04:42:08.161Z,988.82
2022-09-12T04:43:12.369Z,988.80
2022-09-12T04:44:09.137Z,988.83
2022-09-12T04:45:08.141Z,988.83
2022-09-12T04:46:08.140Z,988.81
2022-09-12T04:47:08.111Z,988.80
2022-09-12T04:48:08.096Z,988.79
2022-09-12T04:49:08.088Z,988.80
2022-09-12T04:50:08.094Z,988.80
2022-09-12T04:51:08.072Z,988.81
2022-09-12T04:52:08.081Z,988.84
2022-09-12T04:53:08.048Z,988.85
2022-09-12T04:54:08.036Z,988.84
2022-09-12T04:55:08.040Z,988.82
2022-09-12T04:56:08.015Z,988.84
2022-09-12T04:57:08.006Z,988.79
2022-09-12T04:58:07.993Z,988.83
2022-09-12T04:59:07.986Z,988.84
2022-09-12T05:00:07.989Z,988.80
2022-09-12T05:01:08.063Z,988.77
2022-09-12T05:02:08.011Z,988.77
2022-09-12T05:03:07.946Z,988.76
2022-09-12T05:04:07.935Z,988.73
2022-09-12T05:05:07.944Z,988.75
2022-09-12T05:06:07.911Z,988.73
2022-09-12T05:07:07.908Z,988.77
2022-09-12T05:08:07.915Z,988.71
2022-09-12T05:09:07.901Z,988.76
2022-09-12T05:10:07.885Z,988.71
2022-09-12T05:11:07.875Z,988.74
2022-09-12T05:12:07.859Z,988.68
2022-09-12T05:13:07.843Z,988.68
2022-09-12T05:14:07.832Z,988.66
2022-09-12T05:15:07.836Z,988.69
2022-09-12T05:16:07.980Z,988.65
2022-09-12T05:17:07.804Z,988.66
2022-09-12T05:18:07.944Z,988.66
2022-09-12T05:19:07.782Z,988.67
2022-09-12T05:20:07.780Z,988.65
2022-09-12T05:21:07.761Z,988.63
2022-09-12T05:22:07.748Z,988.61
2022-09-12T05:23:07.737Z,988.58
2022-09-12T05:24:07.750Z,988.56
2022-09-12T05:25:07.737Z,988.57
2022-09-12T05:26:07.706Z,988.55
2022-09-12T05:27:07.698Z,988.58
2022-09-12T05:28:07.686Z,988.58
2022-09-12T05:29:07.679Z,988.58
2022-09-12T05:30:07.685Z,988.61
2022-09-12T05:31:07.662Z,988.59
2022-09-12T05:32:07.650Z,988.58
2022-09-12T05:33:07.638Z,988.58
2022-09-12T05:34:07.625Z,988.61
2022-09-12T05:35:07.633Z,988.62
2022-09-12T05:36:07.609Z,988.54
2022-09-12T05:37:07.603Z,988.54
2022-09-12T05:38:07.586Z,988.57
2022-09-12T05:39:07.576Z,988.55
2022-09-12T05:40:07.663Z,988.55
2022-09-12T05:41:07.558Z,988.51
2022-09-12T05:42:07.548Z,988.51
2022-09-12T05:43:07.538Z,988.51
2022-09-12T05:44:07.522Z,988.53
2022-09-12T05:45:07.534Z,988.55
2022-09-12T05:46:07.513Z,988.52
2022-09-12T05:47:07.501Z,988.55
2022-09-12T05:48:07.481Z,988.55
2022-09-12T05:49:07.479Z,988.57
2022-09-12T05:50:07.473Z,988.54
2022-09-12T05:51:07.454Z,988.54
2022-09-12T05:52:07.441Z,988.59
2022-09-12T05:53:07.434Z,988.56
2022-09-12T05:54:07.449Z,988.55
2022-09-12T05:55:07.425Z,988.56
2022-09-12T05:56:07.420Z,988.59
2022-09-12T05:57:07.392Z,988.60
2022-09-12T05:58:07.380Z,988.59
2022-09-12T05:59:07.368Z,988.61
2022-09-12T06:00:07.388Z,988.63
2022-09-12T06:01:07.423Z,988.62
2022-09-12T06:02:07.403Z,988.65
2022-09-12T06:03:07.329Z,988.62
2022-09-12T06:04:07.319Z,988.60
2022-09-12T06:05:07.327Z,988.62
2022-09-12T06:06:07.297Z,988.57
2022-09-12T06:07:07.286Z,988.60
2022-09-12T06:08:07.274Z,988.58
2022-09-12T06:09:07.266Z,988.56
2022-09-12T06:10:07.266Z,988.61
2022-09-12T06:11:07.257Z,988.63
2022-09-12T06:12:07.258Z,988.63
2022-09-12T06:13:07.226Z,988.63
2022-09-12T06:14:07.212Z,988.66
2022-09-12T06:15:07.219Z,988.57
2022-09-12T06:16:07.194Z,988.56
2022-09-12T06:17:07.182Z,988.57
2022-09-12T06:18:07.168Z,988.53
2022-09-12T06:19:07.166Z,988.56
2022-09-12T06:20:07.194Z,988.55
2022-09-12T06:21:07.141Z,988.55
2022-09-12T06:22:07.128Z,988.56
2022-09-12T06:23:07.120Z,988.57
2022-09-12T06:24:07.106Z,988.56
2022-09-12T06:25:07.113Z,988.54
2022-09-12T06:26:07.087Z,988.60
2022-09-12T06:27:07.091Z,988.59
2022-09-12T06:28:07.097Z,988.59
2022-09-12T06:29:07.055Z,988.64
2022-09-12T06:30:07.059Z,988.55
2022-09-12T06:31:07.079Z,988.59
2022-09-12T06:32:07.024Z,988.61
2022-09-12T06:33:07.013Z,988.56
2022-09-12T06:34:07.012Z,988.59
2022-09-12T06:35:07.017Z,988.58
2022-09-12T06:36:12.085Z,988.57
2022-09-12T06:37:07.970Z,988.57
2022-09-12T06:38:06.961Z,988.63
2022-09-12T06:39:06.955Z,988.60
2022-09-12T06:40:07.020Z,988.59
2022-09-12T06:41:06.950Z,988.62
2022-09-12T06:42:06.919Z,988.61
2022-09-12T06:43:07.689Z,988.63
2022-09-12T06:44:06.919Z,988.62
2022-09-12T06:45:06.889Z,988.66
2022-09-12T06:46:06.958Z,988.65
2022-09-12T06:47:06.869Z,988.70
2022-09-12T06:48:06.866Z,988.68
2022-09-12T06:49:06.848Z,988.71
2022-09-12T06:50:06.836Z,988.70
2022-09-12T06:51:06.840Z,988.69
2022-09-12T06:52:06.818Z,988.70
2022-09-12T06:53:06.808Z,988.71
2022-09-12T06:54:06.802Z,988.74
2022-09-12T06:55:06.787Z,988.76
2022-09-12T06:56:06.789Z,988.74
2022-09-12T06:57:06.769Z,988.75
2022-09-12T06:58:06.752Z,988.74
2022-09-12T06:59:06.764Z,988.72
2022-09-12T07:00:06.777Z,988.71
2022-09-12T07:01:06.864Z,988.76
2022-09-12T07:02:06.784Z,988.74
2022-09-12T07:03:06.706Z,988.78
2022-09-12T07:04:06.696Z,988.72
2022-09-12T07:05:06.682Z,988.76
2022-09-12T07:06:06.686Z,988.73
2022-09-12T07:07:06.662Z,988.77
2022-09-12T07:08:07.198Z,988.77
2022-09-12T07:09:06.643Z,988.76
2022-09-12T07:10:06.629Z,988.75
2022-09-12T07:11:06.641Z,988.75
2022-09-12T07:12:06.609Z,988.79
2022-09-12T07:13:06.601Z,988.78
2022-09-12T07:14:06.604Z,988.81
2022-09-12T07:15:06.581Z,988.77
2022-09-12T07:16:06.615Z,988.75
2022-09-12T07:17:06.622Z,988.72
2022-09-12T07:18:06.549Z,988.72
2022-09-12T07:19:07.216Z,988.73
2022-09-12T07:20:06.526Z,988.68
2022-09-12T07:21:06.529Z,988.65
2022-09-12T07:22:06.506Z,988.69
2022-09-12T07:23:06.498Z,988.65
2022-09-12T07:24:06.488Z,988.64
2022-09-12T07:25:06.475Z,988.64
2022-09-12T07:26:06.476Z,988.65
2022-09-12T07:27:06.456Z,988.64
2022-09-12T07:28:06.445Z,988.69
2022-09-12T07:29:35.280Z,988.69
2022-09-12T07:30:07.438Z,988.71
2022-09-12T07:31:06.524Z,988.66
2022-09-12T07:32:06.424Z,988.68
2022-09-12T07:33:06.394Z,988.71
2022-09-12T07:34:06.382Z,988.67
2022-09-12T07:35:06.372Z,988.69
2022-09-12T07:36:06.373Z,988.70
2022-09-12T07:37:06.352Z,988.69
2022-09-12T07:38:06.339Z,988.69
2022-09-12T07:39:06.337Z,988.69
2022-09-12T07:40:06.361Z,988.67
2022-09-12T07:41:06.328Z,988.70
2022-09-12T07:42:06.301Z,988.66
2022-09-12T07:43:06.291Z,988.72
2022-09-12T07:44:06.287Z,988.68
2022-09-12T07:45:06.271Z,988.70
2022-09-12T07:46:06.369Z,988.69
2022-09-12T07:47:06.248Z,988.70
2022-09-12T07:48:06.258Z,988.72
2022-09-12T07:49:07.518Z,988.72
2022-09-12T07:50:06.219Z,988.72
2022-09-12T07:51:06.224Z,988.72
2022-09-12T07:52:06.196Z,988.72
2022-09-12T07:53:06.186Z,988.72
2022-09-12T07:54:06.179Z,988.71
2022-09-12T07:55:06.165Z,988.70
2022-09-12T07:56:06.171Z,988.73
2022-09-12T07:57:06.143Z,988.74
2022-09-12T07:58:06.133Z,988.71
2022-09-12T07:59:06.127Z,988.76
2022-09-12T08:00:06.112Z,988.80
2022-09-12T08:01:06.174Z,988.76
2022-09-12T08:02:06.127Z,988.78
2022-09-12T08:03:06.084Z,988.75
2022-09-12T08:04:06.094Z,988.78
2022-09-12T08:05:06.063Z,988.79
2022-09-12T08:06:06.064Z,988.78
2022-09-12T08:07:06.045Z,988.81
2022-09-12T08:08:06.032Z,988.83
2022-09-12T08:09:06.027Z,988.83
2022-09-12T08:10:06.012Z,988.88
2022-09-12T08:11:06.015Z,988.82
2022-09-12T08:12:05.990Z,988.81
2022-09-12T08:13:05.981Z,988.86
2022-09-12T08:14:05.966Z,988.85
2022-09-12T08:15:05.960Z,988.84
2022-09-12T08:16:06.066Z,988.84
2022-09-12T08:17:05.947Z,988.86
2022-09-12T08:18:05.933Z,988.89
2022-09-12T08:19:05.920Z,988.91
2022-09-12T08:20:05.940Z,988.86
2022-09-12T08:21:05.916Z,988.84
2022-09-12T08:22:05.888Z,988.88
2022-09-12T08:23:05.887Z,988.84
2022-09-12T08:24:05.882Z,988.86
2022-09-12T08:25:05.857Z,988.88
2022-09-12T08:26:06.445Z,988.89
2022-09-12T08:27:05.849Z,988.90
2022-09-12T08:28:05.823Z,988.96
2022-09-12T08:29:05.816Z,988.95
2022-09-12T08:30:05.805Z,988.97
2022-09-12T08:31:05.879Z,988.95
2022-09-12T08:32:05.818Z,988.94
2022-09-12T08:33:05.774Z,988.95
2022-09-12T08:34:06.725Z,988.90
2022-09-12T08:35:05.750Z,988.93
2022-09-12T08:36:05.775Z,988.91
2022-09-12T08:37:05.742Z,988.96
2022-09-12T08:38:05.717Z,988.95
2022-09-12T08:39:05.722Z,988.94
2022-09-12T08:40:05.745Z,988.94
2022-09-12T08:41:05.688Z,988.91
2022-09-12T08:42:05.778Z,988.96
2022-09-12T08:43:05.667Z,988.92
2022-09-12T08:44:05.654Z,988.89
2022-09-12T08:45:05.652Z,988.88
2022-09-12T08:46:05.705Z,988.90
2022-09-12T08:47:05.640Z,988.91
2022-09-12T08:48:05.615Z,988.91
2022-09-12T08:49:05.604Z,988.82
2022-09-12T08:50:05.591Z,988.84
2022-09-12T08:51:05.582Z,988.81
2022-09-12T08:52:05.605Z,988.79
2022-09-12T08:53:05.564Z,988.80
2022-09-12T08:54:05.548Z,988.76
2022-09-12T08:55:05.541Z,988.75
2022-09-12T08:56:05.559Z,988.74
2022-09-12T08:57:05.528Z,988.71
2022-09-12T08:58:05.512Z,988.68
2022-09-12T08:59:05.503Z,988.71
2022-09-12T09:00:05.489Z,988.73
2022-09-12T09:01:05.554Z,988.71
2022-09-12T09:02:05.541Z,988.71
2022-09-12T09:03:05.460Z,988.70
2022-09-12T09:04:05.444Z,988.76
2022-09-12T09:05:05.435Z,988.74
2022-09-12T09:06:05.430Z,988.78
2022-09-12T09:07:05.427Z,988.73
2022-09-12T09:08:05.425Z,988.77
2022-09-12T09:09:05.395Z,988.74
2022-09-12T09:10:05.384Z,988.68
2022-09-12T09:11:05.379Z,988.69
2022-09-12T09:12:05.382Z,988.73
2022-09-12T09:13:05.354Z,988.66
2022-09-12T09:14:05.646Z,988.69
2022-09-12T09:15:05.335Z,988.65
2022-09-12T09:16:05.390Z,988.68
2022-09-12T09:17:05.328Z,988.69
2022-09-12T09:18:05.308Z,988.71
2022-09-12T09:19:05.290Z,988.72
2022-09-12T09:20:05.284Z,988.70
2022-09-12T09:21:05.270Z,988.70
2022-09-12T09:22:05.275Z,988.69
2022-09-12T09:23:05.257Z,988.66
2022-09-12T09:24:05.367Z,988.64
2022-09-12T09:25:05.241Z,988.62
2022-09-12T09:26:05.227Z,988.58
2022-09-12T09:27:14.325Z,988.56
2022-09-12T09:28:06.200Z,988.57
2022-09-12T09:29:05.189Z,988.53
2022-09-12T09:30:05.180Z,988.55
2022-09-12T09:31:05.220Z,988.54
2022-09-12T09:32:05.172Z,988.54
2022-09-12T09:33:05.148Z,988.56
2022-09-12T09:34:05.137Z,988.53
2022-09-12T09:35:05.127Z,988.55
2022-09-12T09:36:05.123Z,988.49
2022-09-12T09:37:05.121Z,988.48
2022-09-12T09:38:05.099Z,988.42
2022-09-12T09:39:05.090Z,988.40
2022-09-12T09:40:05.162Z,988.40
2022-09-12T09:41:05.063Z,988.37
2022-09-12T09:42:05.077Z,988.41
2022-09-12T09:43:05.045Z,988.41
2022-09-12T09:44:05.123Z,988.40
2022-09-12T09:45:05.021Z,988.38
2022-09-12T09:46:05.080Z,988.38
2022-09-12T09:47:05.018Z,988.36
2022-09-12T09:48:04.990Z,988.31
2022-09-12T09:49:04.981Z,988.31
2022-09-12T09:50:04.989Z,988.32
2022-09-12T09:51:04.956Z,988.30
2022-09-12T09:52:04.962Z,988.27
2022-09-12T09:53:04.937Z,988.29
2022-09-12T09:54:04.928Z,988.27
2022-09-12T09:55:04.916Z,988.24
2022-09-12T09:56:04.930Z,988.27
2022-09-12T09:57:04.912Z,988.25
2022-09-12T09:58:04.884Z,988.21
2022-09-12T09:59:04.874Z,988.28
2022-09-12T10:00:04.865Z,988.23
2022-09-12T10:01:04.907Z,988.25
2022-09-12T10:02:04.920Z,988.25
2022-09-12T10:03:04.852Z,988.26
2022-09-12T10:04:04.824Z,988.32
2022-09-12T10:05:04.819Z,988.27
2022-09-12T10:06:04.802Z,988.25
2022-09-12T10:07:04.802Z,988.27
2022-09-12T10:08:04.784Z,988.24
2022-09-12T10:09:04.770Z,988.28
2022-09-12T10:10:04.776Z,988.24
2022-09-12T10:11:04.754Z,988.26
2022-09-12T10:12:04.779Z,988.21
2022-09-12T10:13:04.731Z,988.20
2022-09-12T10:14:04.722Z,988.17
2022-09-12T10:15:04.712Z,988.17
2022-09-12T10:16:04.897Z,988.20
2022-09-12T10:17:04.708Z,988.15
2022-09-12T10:18:04.684Z,988.18
2022-09-12T10:19:04.672Z,988.20
2022-09-12T10:20:22.739Z,988.19
2022-09-12T10:21:05.648Z,988.15
2022-09-12T10:22:04.658Z,988.19
2022-09-12T10:23:04.628Z,988.20
2022-09-12T10:24:04.618Z,988.19
2022-09-12T10:25:04.609Z,988.19
2022-09-12T10:26:04.604Z,988.14
2022-09-12T10:27:04.601Z,988.15
2022-09-12T10:28:04.598Z,988.11
2022-09-12T10:29:04.566Z,988.14
2022-09-12T10:30:04.581Z,988.12
2022-09-12T10:31:04.597Z,988.07
2022-09-12T10:32:04.552Z,988.05
2022-09-12T10:33:04.534Z,988.07
2022-09-12T10:34:04.519Z,988.04
2022-09-12T10:35:04.512Z,988.06
2022-09-12T10:36:04.495Z,988.08
2022-09-12T10:37:04.489Z,988.04
2022-09-12T10:38:04.492Z,988.06
2022-09-12T10:39:04.465Z,988.02
2022-09-12T10:40:04.532Z,987.91
2022-09-12T10:41:04.445Z,987.98
2022-09-12T10:42:04.436Z,988.06
2022-09-12T10:43:04.435Z,987.96
2022-09-12T10:44:04.449Z,988.00
2022-09-12T10:45:04.403Z,987.98
2022-09-12T10:46:04.453Z,987.97
2022-09-12T10:47:04.384Z,987.99
2022-09-12T10:48:07.703Z,987.99
2022-09-12T10:49:04.368Z,987.97
2022-09-12T10:50:04.356Z,988.00
2022-09-12T10:51:04.343Z,987.98
2022-09-12T10:52:04.358Z,988.02
2022-09-12T10:53:04.338Z,988.01
2022-09-12T10:54:04.316Z,987.97
2022-09-12T10:55:04.320Z,987.99
2022-09-12T10:56:04.341Z,988.01
2022-09-12T10:57:04.281Z,987.94
2022-09-12T10:58:04.286Z,987.91
2022-09-12T10:59:04.261Z,987.98
2022-09-12T11:00:04.274Z,987.93
2022-09-12T11:01:04.328Z,987.94
2022-09-12T11:02:04.352Z,987.94
2022-09-12T11:03:04.235Z,987.95
2022-09-12T11:04:04.207Z,987.94
2022-09-12T11:05:04.198Z,987.90
2022-09-12T11:06:04.188Z,987.89
2022-09-12T11:07:04.181Z,987.77
2022-09-12T11:08:04.181Z,987.88
2022-09-12T11:09:04.158Z,987.91
2022-09-12T11:10:04.145Z,987.92
2022-09-12T11:11:04.136Z,987.89
2022-09-12T11:12:04.126Z,987.88
2022-09-12T11:13:04.137Z,987.86
2022-09-12T11:14:04.104Z,987.81
2022-09-12T11:15:04.092Z,987.84
2022-09-12T11:16:04.168Z,987.80
2022-09-12T11:17:04.071Z,987.79
2022-09-12T11:18:04.078Z,987.83
2022-09-12T11:19:04.071Z,987.78
2022-09-12T11:20:04.042Z,987.85
2022-09-12T11:21:04.030Z,987.78
2022-09-12T11:22:04.020Z,987.71
2022-09-12T11:23:04.025Z,987.65
2022-09-12T11:24:03.998Z,987.66
2022-09-12T11:25:03.987Z,987.67
2022-09-12T11:26:03.980Z,987.68
2022-09-12T11:27:03.966Z,987.67
2022-09-12T11:28:03.980Z,987.67
2022-09-12T11:29:03.948Z,987.73
2022-09-12T11:30:03.954Z,987.71
2022-09-12T11:31:03.934Z,987.66
2022-09-12T11:32:03.943Z,987.66
2022-09-12T11:33:03.918Z,987.58
2022-09-12T11:34:03.895Z,987.65
2022-09-12T11:35:03.886Z,987.59
2022-09-12T11:36:03.875Z,987.58
2022-09-12T11:37:07.401Z,987.52
2022-09-12T11:38:04.873Z,987.52
2022-09-12T11:39:03.862Z,987.47
2022-09-12T11:40:03.853Z,987.47
2022-09-12T11:41:03.823Z,987.47
2022-09-12T11:42:03.819Z,987.47
2022-09-12T11:43:03.806Z,987.50
2022-09-12T11:44:03.808Z,987.49
2022-09-12T11:45:03.788Z,987.51
2022-09-12T11:46:03.812Z,987.50
2022-09-12T11:47:03.768Z,987.50
2022-09-12T11:48:03.780Z,987.47
2022-09-12T11:49:03.753Z,987.48
2022-09-12T11:50:03.734Z,987.45
2022-09-12T11:51:03.741Z,987.43
2022-09-12T11:52:03.713Z,987.45
2022-09-12T11:53:03.706Z,987.43
2022-09-12T11:54:03.706Z,987.40
2022-09-12T11:55:03.683Z,987.34
2022-09-12T11:56:03.671Z,987.32
2022-09-12T11:57:03.681Z,987.33
2022-09-12T11:58:03.652Z,987.36
2022-09-12T11:59:03.656Z,987.33
2022-09-12T12:00:03.630Z,987.33
2022-09-12T12:01:03.619Z,987.31
2022-09-12T12:02:03.653Z,987.37
2022-09-12T12:03:03.599Z,987.28
2022-09-12T12:04:03.634Z,987.30
2022-09-12T12:05:03.677Z,987.27
2022-09-12T12:06:03.580Z,987.31
2022-09-12T12:07:03.562Z,987.27
2022-09-12T12:08:03.551Z,987.28
2022-09-12T12:09:03.550Z,987.24
2022-09-12T12:10:04.311Z,987.19
2022-09-12T12:11:03.523Z,987.15
2022-09-12T12:12:03.510Z,987.15
2022-09-12T12:13:03.499Z,987.20
2022-09-12T12:14:03.502Z,987.14
2022-09-12T12:15:03.476Z,987.16
2022-09-12T12:16:03.537Z,987.13
2022-09-12T12:17:03.456Z,987.14
2022-09-12T12:18:03.448Z,987.13
2022-09-12T12:19:06.514Z,987.10
2022-09-12T12:20:08.181Z,987.15
2022-09-12T12:21:03.416Z,987.14
2022-09-12T12:22:03.405Z,987.13
2022-09-12T12:23:03.400Z,987.10
2022-09-12T12:24:03.402Z,987.17
2022-09-12T12:25:03.374Z,987.12
2022-09-12T12:26:03.369Z,987.01
2022-09-12T12:27:03.354Z,987.04
2022-09-12T12:28:03.343Z,987.07